Time;durP1;ratioP1;P1;durP2;ratioP2;P2;SDS_P1;SDS_P2;PMS_P1;PMS_P2;Temp;Humidity;BMP_temperature;BMP_pressure;BME280_temperature;BME280_humidity;BME280_pressure;Samples;Min_cycle;Max_cycle;Signal;HPM_P1;HPM_P2
2022/03/04 00:00:26;;;;;;;;;;;4.00;68.10;;;;;;5064600;28;19935;-72
2022/03/04 00:02:53;;;;;;;;;;;4.00;68.30;;;;;;5062801;28;19936;-73
2022/03/04 00:05:19;;;;;;;;;;;4.00;68.30;;;;;;5063156;28;19964;-73
2022/03/04 00:07:47;;;;;;;;;;;3.90;68.10;;;;;;5057776;28;20699;-72
2022/03/04 00:10:14;;;;;;;;;;;3.90;68.20;;;;;;5059461;28;20705;-73
2022/03/04 00:12:40;;;;;;;;;;;3.90;68.30;;;;;;5059062;28;20385;-73
2022/03/04 00:15:07;;;;;;;;;;;3.90;68.30;;;;;;5056890;28;19933;-73
2022/03/04 00:17:34;;;;;;;;;;;3.80;68.50;;;;;;5059973;28;19999;-74
2022/03/04 00:20:01;;;;;;;;;;;3.80;68.60;;;;;;5059473;28;19932;-73
2022/03/04 00:22:27;;;;;;;;;;;3.80;68.70;;;;;;5058508;28;19935;-73
2022/03/04 00:24:55;;;;;;;;;;;3.70;68.70;;;;;;5059660;28;20363;-73
2022/03/04 00:27:22;;;;;;;;;;;3.70;68.80;;;;;;5054024;28;19928;-73
2022/03/04 00:29:48;;;;;;;;;;;3.70;68.90;;;;;;5060229;28;19937;-74
2022/03/04 00:32:15;;;;;;;;;;;3.70;69.10;;;;;;5055247;28;20250;-73
2022/03/04 00:34:42;;;;;;;;;;;3.70;69.10;;;;;;5059192;28;19951;-72
2022/03/04 00:37:09;;;;;;;;;;;3.60;69.00;;;;;;5052033;28;19933;-72
2022/03/04 00:39:35;;;;;;;;;;;3.60;69.00;;;;;;5056540;28;19936;-72
2022/03/04 00:42:04;;;;;;;;;;;3.60;69.20;;;;;;5062607;28;19935;-73
2022/03/04 00:44:30;;;;;;;;;;;3.60;69.30;;;;;;5062315;28;19929;-72
2022/03/04 00:46:57;;;;;;;;;;;3.50;69.20;;;;;;5053731;28;19928;-73
2022/03/04 00:49:23;;;;;;;;;;;3.50;69.40;;;;;;5063681;28;20540;-73
2022/03/04 00:51:51;;;;;;;;;;;3.50;69.50;;;;;;5060565;28;20208;-72
2022/03/04 00:54:17;;;;;;;;;;;3.50;69.60;;;;;;5061479;28;19925;-73
2022/03/04 00:56:44;;;;;;;;;;;3.40;69.60;;;;;;5060038;28;19943;-73
2022/03/04 00:59:12;;;;;;;;;;;3.40;69.60;;;;;;5053834;28;20113;-73
2022/03/04 01:01:38;;;;;;;;;;;3.40;69.70;;;;;;5062770;28;19928;-73
2022/03/04 01:04:05;;;;;;;;;;;3.40;69.90;;;;;;5065917;28;19928;-73
2022/03/04 01:06:31;;;;;;;;;;;3.40;69.80;;;;;;5060222;28;19928;-73
2022/03/04 01:08:58;;;;;;;;;;;3.30;69.90;;;;;;5056362;28;19935;-74
2022/03/04 01:11:24;;;;;;;;;;;3.30;70.60;;;;;;5053570;28;19933;-73
2022/03/04 01:13:51;;;;;;;;;;;3.30;69.90;;;;;;5056004;28;20304;-73
2022/03/04 01:16:19;;;;;;;;;;;3.30;70.00;;;;;;5056500;28;20255;-73
2022/03/04 01:18:45;;;;;;;;;;;3.20;70.00;;;;;;5056869;28;19935;-73
2022/03/04 01:21:12;;;;;;;;;;;3.20;70.10;;;;;;5053859;28;19928;-74
2022/03/04 01:23:38;;;;;;;;;;;3.20;70.00;;;;;;5052730;28;19929;-73
2022/03/04 01:26:05;;;;;;;;;;;3.20;70.00;;;;;;5055581;28;19935;-73
2022/03/04 01:28:32;;;;;;;;;;;3.10;70.00;;;;;;5055455;28;20432;-73
2022/03/04 01:30:58;;;;;;;;;;;3.10;70.00;;;;;;5052478;28;19932;-73
2022/03/04 01:33:26;;;;;;;;;;;3.20;70.10;;;;;;5053736;28;19940;-73
2022/03/04 01:35:53;;;;;;;;;;;3.10;70.20;;;;;;5055707;28;19935;-73
2022/03/04 01:38:19;;;;;;;;;;;3.10;70.20;;;;;;5057245;28;19933;-72
2022/03/04 01:40:46;;;;;;;;;;;3.10;70.30;;;;;;5052395;28;19928;-73
2022/03/04 01:43:12;;;;;;;;;;;3.00;70.40;;;;;;5059315;28;20833;-73
2022/03/04 01:45:39;;;;;;;;;;;3.00;70.30;;;;;;5055324;28;20351;-71
2022/03/04 01:48:06;;;;;;;;;;;3.00;70.40;;;;;;5056656;28;19928;-73
2022/03/04 01:50:35;;;;;;;;;;;3.00;70.30;;;;;;5061957;28;19929;-73
2022/03/04 01:53:02;;;;;;;;;;;3.00;70.40;;;;;;5049610;28;19932;-73
2022/03/04 01:55:29;;;;;;;;;;;3.00;70.50;;;;;;5054990;28;20472;-73
2022/03/04 01:57:55;;;;;;;;;;;2.90;70.50;;;;;;5054220;28;19940;-71
2022/03/04 02:00:22;;;;;;;;;;;2.90;70.40;;;;;;5052118;28;19928;-73
2022/03/04 02:02:48;;;;;;;;;;;2.90;70.30;;;;;;5053090;28;19935;-73
2022/03/04 02:05:15;;;;;;;;;;;2.90;70.40;;;;;;5055860;28;19932;-72
2022/03/04 02:07:43;;;;;;;;;;;2.90;70.30;;;;;;5055503;28;19935;-73
2022/03/04 02:10:10;;;;;;;;;;;2.80;70.30;;;;;;5056778;28;20417;-72
2022/03/04 02:12:37;;;;;;;;;;;2.80;70.40;;;;;;5050697;28;19928;-73
2022/03/04 02:15:04;;;;;;;;;;;2.80;70.40;;;;;;5056536;28;19936;-72
2022/03/04 02:17:31;;;;;;;;;;;2.80;70.60;;;;;;5031035;28;19933;-73
2022/03/04 02:19:58;;;;;;;;;;;2.80;70.60;;;;;;5034233;28;19940;-72
2022/03/04 02:22:26;;;;;;;;;;;2.70;71.30;;;;;;5033024;28;19929;-73
2022/03/04 02:24:52;;;;;;;;;;;2.70;70.60;;;;;;5032145;28;19929;-73
2022/03/04 02:27:19;;;;;;;;;;;2.70;70.50;;;;;;5034155;28;20517;-73
2022/03/04 02:29:46;;;;;;;;;;;2.70;70.60;;;;;;5028875;28;19933;-72
2022/03/04 02:32:12;;;;;;;;;;;2.70;70.70;;;;;;5049483;28;19963;-73
2022/03/04 02:34:39;;;;;;;;;;;2.70;70.60;;;;;;5054284;28;19935;-72
2022/03/04 02:37:05;;;;;;;;;;;2.70;70.70;;;;;;5052286;28;19933;-73
2022/03/04 02:39:33;;;;;;;;;;;2.70;70.80;;;;;;5055033;28;20427;-73
2022/03/04 02:42:00;;;;;;;;;;;2.60;70.80;;;;;;5051508;28;20435;-72
2022/03/04 02:44:26;;;;;;;;;;;2.60;70.80;;;;;;5057317;28;19932;-73
2022/03/04 02:46:53;;;;;;;;;;;2.60;70.90;;;;;;5051989;28;19936;-72
2022/03/04 02:49:19;;;;;;;;;;;2.60;70.90;;;;;;5056456;28;19936;-73
2022/03/04 02:51:46;;;;;;;;;;;2.50;70.80;;;;;;5051311;28;20011;-73
2022/03/04 02:54:13;;;;;;;;;;;2.50;70.90;;;;;;5051819;28;19933;-73
2022/03/04 02:56:42;;;;;;;;;;;2.50;70.90;;;;;;5055214;28;20601;-73
2022/03/04 02:59:08;;;;;;;;;;;2.50;71.10;;;;;;5055079;28;19951;-73
2022/03/04 03:01:35;;;;;;;;;;;2.50;71.10;;;;;;5044929;28;20352;-71
2022/03/04 03:04:01;;;;;;;;;;;2.50;71.20;;;;;;5033736;28;19928;-73
2022/03/04 03:06:28;;;;;;;;;;;2.50;71.30;;;;;;5035799;28;20320;-72
2022/03/04 03:08:54;;;;;;;;;;;2.40;71.20;;;;;;5039755;28;19932;-73
2022/03/04 03:11:21;;;;;;;;;;;2.40;71.20;;;;;;5030964;28;19932;-72
2022/03/04 03:13:49;;;;;;;;;;;2.40;71.30;;;;;;5035854;28;19935;-72
2022/03/04 03:16:15;;;;;;;;;;;2.40;71.40;;;;;;5047177;28;20770;-72
2022/03/04 03:18:42;;;;;;;;;;;2.40;71.50;;;;;;5058485;28;19932;-73
2022/03/04 03:21:09;;;;;;;;;;;2.40;71.60;;;;;;5055823;28;19936;-73
2022/03/04 03:23:35;;;;;;;;;;;2.30;71.60;;;;;;5058539;28;19928;-73
2022/03/04 03:26:02;;;;;;;;;;;2.30;71.60;;;;;;5054480;28;19939;-72
2022/03/04 03:28:28;;;;;;;;;;;2.30;71.60;;;;;;5052065;28;20758;-72
2022/03/04 03:30:56;;;;;;;;;;;2.30;71.70;;;;;;5051297;28;19929;-73
2022/03/04 03:33:23;;;;;;;;;;;2.30;71.90;;;;;;5054555;28;19930;-72
2022/03/04 03:35:54;;;;;;;;;;;2.30;71.80;;;;;;5052582;28;19933;-72
2022/03/04 03:38:21;;;;;;;;;;;2.20;71.90;;;;;;5057097;28;20317;-72
2022/03/04 03:40:48;;;;;;;;;;;2.20;71.90;;;;;;5050705;28;19936;-73
2022/03/04 03:43:14;;;;;;;;;;;2.20;71.90;;;;;;5057684;28;19928;-72
2022/03/04 03:45:41;;;;;;;;;;;2.20;72.00;;;;;;5058056;28;19964;-72
2022/03/04 03:48:09;;;;;;;;;;;2.20;72.10;;;;;;5051376;28;20629;-72
2022/03/04 03:50:38;;;;;;;;;;;2.20;72.30;;;;;;5054545;28;19929;-72
2022/03/04 03:53:04;;;;;;;;;;;2.10;72.30;;;;;;5052485;28;19943;-70
2022/03/04 03:55:31;;;;;;;;;;;2.20;72.40;;;;;;5057517;28;19928;-73
2022/03/04 03:57:57;;;;;;;;;;;2.10;72.50;;;;;;5051023;28;19936;-72
2022/03/04 04:00:24;;;;;;;;;;;2.10;72.60;;;;;;5051214;28;19933;-72
2022/03/04 04:02:51;;;;;;;;;;;2.10;72.70;;;;;;5052261;28;19924;-72
2022/03/04 04:05:19;;;;;;;;;;;2.00;72.70;;;;;;5056419;28;20319;-72
2022/03/04 04:07:45;;;;;;;;;;;2.10;72.80;;;;;;5055708;28;19936;-72
2022/03/04 04:10:12;;;;;;;;;;;2.00;72.70;;;;;;5054634;28;20293;-72
2022/03/04 04:12:38;;;;;;;;;;;2.00;72.70;;;;;;5052090;28;19951;-72
2022/03/04 04:15:06;;;;;;;;;;;2.00;72.80;;;;;;5056601;28;20347;-72
2022/03/04 04:17:32;;;;;;;;;;;2.00;72.80;;;;;;5051386;28;20373;-73
2022/03/04 04:19:59;;;;;;;;;;;1.90;72.90;;;;;;5054122;28;19936;-72
2022/03/04 04:22:27;;;;;;;;;;;1.90;73.00;;;;;;5053595;28;19990;-72
2022/03/04 04:24:53;;;;;;;;;;;1.90;73.10;;;;;;5058517;28;21852;-72
2022/03/04 04:27:20;;;;;;;;;;;1.90;73.10;;;;;;5053636;28;20067;-73
2022/03/04 04:29:47;;;;;;;;;;;1.90;73.20;;;;;;5052609;28;20142;-72
2022/03/04 04:32:13;;;;;;;;;;;1.80;73.20;;;;;;5050973;28;19936;-73
2022/03/04 04:34:40;;;;;;;;;;;1.90;73.20;;;;;;5053981;28;19931;-72
2022/03/04 04:37:07;;;;;;;;;;;1.80;73.20;;;;;;5054769;28;19939;-73
2022/03/04 04:39:35;;;;;;;;;;;1.80;73.30;;;;;;5058815;28;19932;-73
2022/03/04 04:42:01;;;;;;;;;;;1.70;73.20;;;;;;5062385;28;19932;-73
2022/03/04 04:44:28;;;;;;;;;;;1.80;73.40;;;;;;5058545;28;19933;-72
2022/03/04 04:46:54;;;;;;;;;;;1.80;74.20;;;;;;5062696;28;19931;-73
2022/03/04 04:49:21;;;;;;;;;;;1.70;73.40;;;;;;5059453;28;20672;-72
2022/03/04 04:51:48;;;;;;;;;;;1.70;73.40;;;;;;5057957;28;20455;-72
2022/03/04 04:54:14;;;;;;;;;;;1.70;73.50;;;;;;5062379;28;19928;-73
2022/03/04 04:56:42;;;;;;;;;;;1.70;73.60;;;;;;5066383;28;19932;-71
2022/03/04 04:59:10;;;;;;;;;;;1.70;73.60;;;;;;5056828;28;20396;-72
2022/03/04 05:01:37;;;;;;;;;;;1.70;73.80;;;;;;5059454;28;19990;-73
2022/03/04 05:04:03;;;;;;;;;;;1.60;73.70;;;;;;5054810;28;19929;-72
2022/03/04 05:06:30;;;;;;;;;;;1.60;73.70;;;;;;5057691;28;19928;-73
2022/03/04 05:08:56;;;;;;;;;;;1.60;73.80;;;;;;5054436;28;19933;-72
2022/03/04 05:11:23;;;;;;;;;;;1.50;73.80;;;;;;5055276;28;20620;-73
2022/03/04 05:13:51;;;;;;;;;;;1.60;73.80;;;;;;5060618;28;19928;-73
2022/03/04 05:16:18;;;;;;;;;;;1.50;73.70;;;;;;5058680;28;20346;-73
2022/03/04 05:18:44;;;;;;;;;;;1.50;73.80;;;;;;5066802;28;20715;-72
2022/03/04 05:21:11;;;;;;;;;;;1.50;73.80;;;;;;5060609;28;19928;-71
2022/03/04 05:26:21;;;;;;;;;;;1.50;74.00;;;;;;5055074;28;19989;-73
2022/03/04 05:28:48;;;;;;;;;;;1.50;73.90;;;;;;5056573;28;19932;-72
2022/03/04 05:31:16;;;;;;;;;;;1.40;73.90;;;;;;5058395;28;19928;-72
2022/03/04 05:33:42;;;;;;;;;;;1.40;73.80;;;;;;5055163;28;19924;-70
2022/03/04 05:36:09;;;;;;;;;;;1.40;73.90;;;;;;5059558;28;19940;-72
2022/03/04 05:38:35;;;;;;;;;;;1.40;74.00;;;;;;5055629;28;19929;-72
2022/03/04 05:41:02;;;;;;;;;;;1.40;74.10;;;;;;5052934;28;19940;-72
2022/03/04 05:43:29;;;;;;;;;;;1.40;74.00;;;;;;5062539;28;19941;-72
2022/03/04 05:45:55;;;;;;;;;;;1.30;74.00;;;;;;5062162;28;19929;-73
2022/03/04 05:48:23;;;;;;;;;;;1.30;74.10;;;;;;5058457;28;19932;-73
2022/03/04 05:50:50;;;;;;;;;;;1.30;74.10;;;;;;5064493;28;19933;-72
2022/03/04 05:53:16;;;;;;;;;;;1.30;74.20;;;;;;5059902;28;19936;-72
2022/03/04 05:55:43;;;;;;;;;;;1.30;74.10;;;;;;5059662;28;20380;-71
2022/03/04 05:58:10;;;;;;;;;;;1.30;74.20;;;;;;5059186;28;19932;-72
2022/03/04 06:00:36;;;;;;;;;;;1.30;74.20;;;;;;5055264;28;20363;-73
2022/03/04 06:03:03;;;;;;;;;;;1.30;74.20;;;;;;5060098;28;19924;-72
2022/03/04 06:05:31;;;;;;;;;;;1.20;74.30;;;;;;5062876;28;20375;-73
2022/03/04 06:07:57;;;;;;;;;;;1.20;74.20;;;;;;5061558;28;19951;-72
2022/03/04 06:10:24;;;;;;;;;;;1.20;74.40;;;;;;5057557;28;19935;-72
2022/03/04 06:12:50;;;;;;;;;;;1.20;74.40;;;;;;5056425;28;19929;-72
2022/03/04 06:15:17;;;;;;;;;;;1.20;74.40;;;;;;5050267;28;19935;-72
2022/03/04 06:17:47;;;;;;;;;;;1.20;74.30;;;;;;5067482;28;20097;-71
2022/03/04 06:20:14;;;;;;;;;;;1.20;74.40;;;;;;5058323;28;19982;-73
2022/03/04 06:22:41;;;;;;;;;;;1.20;74.60;;;;;;5054452;28;19940;-73
2022/03/04 06:25:09;;;;;;;;;;;1.20;74.60;;;;;;5055399;28;19943;-73
2022/03/04 06:27:36;;;;;;;;;;;1.20;74.60;;;;;;5064943;28;19924;-73
2022/03/04 06:30:02;;;;;;;;;;;1.10;74.60;;;;;;5059437;28;19933;-73
2022/03/04 06:32:29;;;;;;;;;;;1.10;74.50;;;;;;5052323;28;19932;-70
2022/03/04 06:34:57;;;;;;;;;;;1.10;74.60;;;;;;5060807;28;19933;-72
2022/03/04 06:37:24;;;;;;;;;;;1.10;74.60;;;;;;5059454;28;19935;-73
2022/03/04 06:39:51;;;;;;;;;;;1.10;74.70;;;;;;5056324;28;19929;-72
2022/03/04 06:42:18;;;;;;;;;;;1.10;74.80;;;;;;5060820;28;19928;-73
2022/03/04 06:44:44;;;;;;;;;;;1.10;74.70;;;;;;5056696;28;19940;-72
2022/03/04 06:47:11;;;;;;;;;;;1.10;74.70;;;;;;5061708;28;19928;-73
2022/03/04 06:49:38;;;;;;;;;;;1.10;74.90;;;;;;5058847;28;19932;-68
2022/03/04 06:52:05;;;;;;;;;;;1.00;74.90;;;;;;5064137;28;19936;-68
2022/03/04 06:54:32;;;;;;;;;;;1.00;74.90;;;;;;5066031;28;19933;-69
2022/03/04 06:57:00;;;;;;;;;;;1.00;74.90;;;;;;5065796;28;20482;-68
2022/03/04 06:59:27;;;;;;;;;;;1.00;74.90;;;;;;5051838;28;19944;-68
2022/03/04 07:01:53;;;;;;;;;;;1.00;74.90;;;;;;5074612;28;19932;-68
2022/03/04 07:04:20;;;;;;;;;;;1.00;74.90;;;;;;5058549;28;19932;-69
2022/03/04 07:06:46;;;;;;;;;;;1.00;74.90;;;;;;5065785;28;19928;-69
2022/03/04 07:09:13;;;;;;;;;;;1.00;75.00;;;;;;5056529;28;20143;-68
2022/03/04 07:11:39;;;;;;;;;;;1.00;74.90;;;;;;5061515;28;20494;-68
2022/03/04 07:14:07;;;;;;;;;;;1.00;75.00;;;;;;5050230;28;20345;-69
2022/03/04 07:16:34;;;;;;;;;;;0.90;74.90;;;;;;5053477;28;19929;-68
2022/03/04 07:19:00;;;;;;;;;;;0.90;75.00;;;;;;5055118;28;19933;-69
2022/03/04 07:21:27;;;;;;;;;;;1.00;74.90;;;;;;5059139;28;19935;-69
2022/03/04 07:23:54;;;;;;;;;;;0.90;75.00;;;;;;5060156;28;19928;-68
2022/03/04 07:26:21;;;;;;;;;;;0.90;75.00;;;;;;5053856;28;19935;-68
2022/03/04 07:28:47;;;;;;;;;;;0.90;74.90;;;;;;5060548;28;19932;-75
2022/03/04 07:31:16;;;;;;;;;;;0.90;75.00;;;;;;5055479;28;19928;-76
2022/03/04 07:33:43;;;;;;;;;;;0.90;75.00;;;;;;5051820;28;19928;-76
2022/03/04 07:36:09;;;;;;;;;;;0.90;75.00;;;;;;5051560;28;19966;-75
2022/03/04 07:38:36;;;;;;;;;;;0.90;75.00;;;;;;5054576;28;19928;-76
2022/03/04 07:41:02;;;;;;;;;;;0.90;74.90;;;;;;5056790;28;20438;-75
2022/03/04 07:43:29;;;;;;;;;;;1.00;75.00;;;;;;5053782;28;19933;-76
2022/03/04 07:45:56;;;;;;;;;;;0.90;74.90;;;;;;5052325;28;20419;-75
2022/03/04 07:48:24;;;;;;;;;;;1.00;74.90;;;;;;5061812;28;19928;-75
2022/03/04 07:50:51;;;;;;;;;;;0.90;74.90;;;;;;5051409;28;20534;-75
2022/03/04 07:53:17;;;;;;;;;;;1.00;75.00;;;;;;5049307;28;19933;-74
2022/03/04 07:55:44;;;;;;;;;;;1.00;75.00;;;;;;5053999;28;19932;-74
2022/03/04 07:58:10;;;;;;;;;;;0.90;75.10;;;;;;5050568;28;19947;-75
2022/03/04 08:00:37;;;;;;;;;;;1.00;75.00;;;;;;5053759;28;19935;-75
2022/03/04 08:03:04;;;;;;;;;;;0.90;75.80;;;;;;5054529;28;19943;-75
2022/03/04 08:05:33;;;;;;;;;;;0.90;75.80;;;;;;5052207;28;19930;-75
2022/03/04 08:08:00;;;;;;;;;;;0.90;75.10;;;;;;5054967;28;20592;-75
2022/03/04 08:10:26;;;;;;;;;;;0.90;75.10;;;;;;5055428;28;19929;-75
2022/03/04 08:12:53;;;;;;;;;;;0.90;75.10;;;;;;5061761;28;19928;-74
2022/03/04 08:15:20;;;;;;;;;;;1.00;75.20;;;;;;5054966;28;19940;-76
2022/03/04 08:17:46;;;;;;;;;;;0.90;75.00;;;;;;5056405;28;19935;-75
2022/03/04 08:20:13;;;;;;;;;;;1.00;75.00;;;;;;5062954;28;19967;-75
2022/03/04 08:22:41;;;;;;;;;;;1.00;75.00;;;;;;5053291;28;19933;-75
2022/03/04 08:25:08;;;;;;;;;;;1.00;75.00;;;;;;5058084;28;20476;-75
2022/03/04 08:27:37;;;;;;;;;;;1.00;75.00;;;;;;5053145;28;19932;-75
2022/03/04 08:30:04;;;;;;;;;;;0.90;74.90;;;;;;5056576;28;19928;-74
2022/03/04 08:32:30;;;;;;;;;;;1.00;75.00;;;;;;5054505;28;19940;-75
2022/03/04 08:34:59;;;;;;;;;;;1.00;75.00;;;;;;5061278;28;19936;-75
2022/03/04 08:37:25;;;;;;;;;;;1.00;75.00;;;;;;5057644;28;19978;-74
2022/03/04 08:39:53;;;;;;;;;;;1.00;74.90;;;;;;5061717;28;19971;-75
2022/03/04 08:42:20;;;;;;;;;;;1.10;75.00;;;;;;5058859;28;19937;-75
2022/03/04 08:44:46;;;;;;;;;;;1.10;74.90;;;;;;5056556;28;21637;-75
2022/03/04 08:47:13;;;;;;;;;;;1.10;74.90;;;;;;5055306;28;20364;-74
2022/03/04 08:49:39;;;;;;;;;;;1.10;74.80;;;;;;5053028;28;20325;-75
2022/03/04 08:52:07;;;;;;;;;;;1.20;74.80;;;;;;5059666;28;19932;-75
2022/03/04 08:54:34;;;;;;;;;;;1.20;74.60;;;;;;5061987;28;20547;-75
2022/03/04 08:57:02;;;;;;;;;;;1.20;74.50;;;;;;5066580;28;19928;-75
2022/03/04 08:59:28;;;;;;;;;;;1.30;74.50;;;;;;5063546;28;19932;-75
2022/03/04 09:01:56;;;;;;;;;;;1.30;74.30;;;;;;5060958;28;19928;-75
2022/03/04 09:04:23;;;;;;;;;;;1.40;74.30;;;;;;5057894;28;20433;-76
2022/03/04 09:06:49;;;;;;;;;;;1.40;74.20;;;;;;5055992;28;20286;-74
2022/03/04 09:09:16;;;;;;;;;;;1.40;74.10;;;;;;5057349;28;20340;-75
2022/03/04 09:11:42;;;;;;;;;;;1.50;74.00;;;;;;5057838;28;19929;-74
2022/03/04 09:14:10;;;;;;;;;;;1.50;73.90;;;;;;5056956;28;19940;-75
2022/03/04 09:16:37;;;;;;;;;;;1.50;73.80;;;;;;5061783;28;20468;-75
2022/03/04 09:19:04;;;;;;;;;;;1.60;73.70;;;;;;5060542;28;19935;-76
2022/03/04 09:21:31;;;;;;;;;;;1.60;74.30;;;;;;5054942;28;19940;-75
2022/03/04 09:23:57;;;;;;;;;;;1.70;74.20;;;;;;5055326;28;19951;-75
2022/03/04 09:26:24;;;;;;;;;;;1.70;73.40;;;;;;5050436;28;19929;-75
2022/03/04 09:28:50;;;;;;;;;;;1.80;73.20;;;;;;5062893;28;19940;-75
2022/03/04 09:31:18;;;;;;;;;;;1.80;73.10;;;;;;5068259;28;19935;-76
2022/03/04 09:33:45;;;;;;;;;;;1.80;73.10;;;;;;5048621;28;19928;-75
2022/03/04 09:36:13;;;;;;;;;;;1.90;73.00;;;;;;5057394;28;20391;-75
2022/03/04 09:38:39;;;;;;;;;;;2.00;72.90;;;;;;5059546;28;20311;-74
2022/03/04 09:41:06;;;;;;;;;;;2.00;72.80;;;;;;5060902;28;19933;-76
2022/03/04 09:43:33;;;;;;;;;;;2.10;72.70;;;;;;5051415;28;19928;-76
2022/03/04 09:45:59;;;;;;;;;;;2.10;73.30;;;;;;5055988;28;19928;-76
2022/03/04 09:48:27;;;;;;;;;;;2.20;72.40;;;;;;5058555;28;20663;-75
2022/03/04 09:50:54;;;;;;;;;;;2.20;72.10;;;;;;5061891;28;19932;-76
2022/03/04 09:53:20;;;;;;;;;;;2.30;71.90;;;;;;5053535;28;19933;-74
2022/03/04 09:55:47;;;;;;;;;;;2.40;71.70;;;;;;5054259;28;19933;-75
2022/03/04 09:58:14;;;;;;;;;;;2.50;71.50;;;;;;5056183;28;19952;-75
2022/03/04 10:00:42;;;;;;;;;;;2.60;71.30;;;;;;5054977;28;20296;-75
2022/03/04 10:03:12;;;;;;;;;;;2.60;71.10;;;;;;5059783;28;19936;-76
2022/03/04 10:05:51;;;;;;;;;;;2.70;70.90;;;;;;5062032;28;19929;-75
2022/03/04 10:08:18;;;;;;;;;;;2.70;70.60;;;;;;5055299;28;19940;-76
2022/03/04 10:10:48;;;;;;;;;;;2.80;70.40;;;;;;5054213;28;20297;-75
2022/03/04 10:13:15;;;;;;;;;;;2.90;70.20;;;;;;5059098;28;19932;-75
2022/03/04 10:15:52;;;;;;;;;;;3.00;70.10;;;;;;5067117;28;19929;-75
2022/03/04 10:18:25;;;;;;;;;;;3.00;69.90;;;;;;5061924;28;20554;-75
2022/03/04 10:20:53;;;;;;;;;;;3.10;69.60;;;;;;5057741;28;19928;-74
2022/03/04 10:23:20;;;;;;;;;;;3.20;69.50;;;;;;5051418;28;19936;-76
2022/03/04 10:25:48;;;;;;;;;;;3.30;69.30;;;;;;5057680;28;19935;-75
2022/03/04 10:28:15;;;;;;;;;;;3.30;69.10;;;;;;5060086;28;19933;-76
2022/03/04 10:30:46;;;;;;;;;;;3.40;68.90;;;;;;5051952;28;20300;-75
2022/03/04 10:33:13;;;;;;;;;;;3.40;68.80;;;;;;5055671;28;19928;-75
2022/03/04 10:35:40;;;;;;;;;;;3.50;68.60;;;;;;5057445;28;20023;-76
2022/03/04 10:38:17;;;;;;;;;;;3.60;68.50;;;;;;5058391;28;19932;-76
2022/03/04 10:40:43;;;;;;;;;;;3.70;68.30;;;;;;5054202;28;19928;-75
2022/03/04 10:43:11;;;;;;;;;;;3.70;68.10;;;;;;5052053;28;19954;-75
2022/03/04 10:45:40;;;;;;;;;;;3.80;68.10;;;;;;5052238;28;19932;-75
2022/03/04 10:48:08;;;;;;;;;;;3.90;68.10;;;;;;5053988;28;20600;-76
2022/03/04 10:50:36;;;;;;;;;;;4.00;68.00;;;;;;5055573;28;19933;-75
2022/03/04 10:53:03;;;;;;;;;;;4.00;67.90;;;;;;5054276;28;19936;-75
2022/03/04 10:55:33;;;;;;;;;;;4.10;68.10;;;;;;5050505;28;20732;-75
2022/03/04 10:58:00;;;;;;;;;;;4.10;67.90;;;;;;5053272;28;19936;-76
2022/03/04 11:00:28;;;;;;;;;;;4.20;67.60;;;;;;5049088;28;19928;-75
2022/03/04 11:02:55;;;;;;;;;;;4.30;67.50;;;;;;5056612;28;19929;-76
2022/03/04 11:05:22;;;;;;;;;;;4.30;67.20;;;;;;5049703;28;20438;-75
2022/03/04 11:07:48;;;;;;;;;;;4.40;67.10;;;;;;5052390;28;20336;-76
2022/03/04 11:10:15;;;;;;;;;;;4.40;66.70;;;;;;5051657;28;19939;-75
2022/03/04 11:12:44;;;;;;;;;;;4.50;67.30;;;;;;5051257;28;20468;-76
2022/03/04 11:15:11;;;;;;;;;;;4.60;66.60;;;;;;5049277;28;19933;-75
2022/03/04 11:17:38;;;;;;;;;;;4.60;66.60;;;;;;5055945;28;20452;-75
2022/03/04 11:20:05;;;;;;;;;;;4.70;66.50;;;;;;5060217;28;19925;-76
2022/03/04 11:22:33;;;;;;;;;;;4.80;66.40;;;;;;5051764;28;19928;-76
2022/03/04 11:25:01;;;;;;;;;;;4.80;66.10;;;;;;5056165;28;20377;-76
2022/03/04 11:27:29;;;;;;;;;;;4.90;65.80;;;;;;5058531;28;19936;-76
2022/03/04 11:29:58;;;;;;;;;;;5.00;65.60;;;;;;5053938;28;19968;-76
2022/03/04 11:32:29;;;;;;;;;;;5.00;65.40;;;;;;5049606;28;19929;-76
2022/03/04 11:34:55;;;;;;;;;;;5.10;65.50;;;;;;5055792;28;19952;-76
2022/03/04 11:37:22;;;;;;;;;;;5.10;64.70;;;;;;5054528;28;19944;-76
2022/03/04 11:40:00;;;;;;;;;;;5.20;64.60;;;;;;5057263;28;19928;-76
2022/03/04 11:42:27;;;;;;;;;;;5.30;64.50;;;;;;5060879;28;19939;-75
2022/03/04 11:44:56;;;;;;;;;;;5.30;64.50;;;;;;5050610;28;19956;-75
2022/03/04 11:47:27;;;;;;;;;;;5.40;64.40;;;;;;5061099;28;19931;-76
2022/03/04 11:49:53;;;;;;;;;;;5.40;64.30;;;;;;5055725;28;19940;-74
2022/03/04 11:52:24;;;;;;;;;;;5.50;64.20;;;;;;5057641;28;19947;-76
2022/03/04 11:55:09;;;;;;;;;;;5.60;63.90;;;;;;5063523;28;20019;-75
2022/03/04 11:57:37;;;;;;;;;;;5.70;63.50;;;;;;5056527;28;19935;-75
2022/03/04 12:00:21;;;;;;;;;;;5.70;63.30;;;;;;5054787;28;19929;-75
2022/03/04 12:02:51;;;;;;;;;;;5.80;63.30;;;;;;5056686;28;19928;-75
2022/03/04 12:05:26;;;;;;;;;;;5.80;63.00;;;;;;5050443;28;19951;-76
2022/03/04 12:08:06;;;;;;;;;;;5.90;63.00;;;;;;5054311;28;19929;-74
2022/03/04 12:10:35;;;;;;;;;;;6.00;62.70;;;;;;5058770;28;19935;-76
2022/03/04 12:13:03;;;;;;;;;;;6.00;62.70;;;;;;5058636;28;19929;-76
2022/03/04 12:15:31;;;;;;;;;;;6.10;62.70;;;;;;5055350;28;19939;-76
2022/03/04 12:18:03;;;;;;;;;;;6.10;62.30;;;;;;5053968;28;19937;-75
2022/03/04 12:20:30;;;;;;;;;;;6.20;62.20;;;;;;5062377;28;19928;-76
2022/03/04 12:22:58;;;;;;;;;;;6.20;62.00;;;;;;5062119;28;19929;-76
2022/03/04 12:25:45;;;;;;;;;;;6.30;61.80;;;;;;5059130;28;20445;-75
2022/03/04 12:28:16;;;;;;;;;;;6.40;61.70;;;;;;5057244;28;19936;-76
2022/03/04 12:30:42;;;;;;;;;;;6.40;61.40;;;;;;5056117;28;19928;-75
2022/03/04 12:33:10;;;;;;;;;;;6.40;61.20;;;;;;5054418;28;19932;-75
2022/03/04 12:35:37;;;;;;;;;;;6.50;61.10;;;;;;5064393;28;19932;-76
2022/03/04 12:38:03;;;;;;;;;;;6.60;61.10;;;;;;5055726;28;19993;-75
2022/03/04 12:40:30;;;;;;;;;;;6.60;61.00;;;;;;5053629;28;19928;-76
2022/03/04 12:42:57;;;;;;;;;;;6.70;61.10;;;;;;5053258;28;19928;-75
2022/03/04 12:45:25;;;;;;;;;;;6.70;60.80;;;;;;5055739;28;19929;-75
2022/03/04 12:47:53;;;;;;;;;;;6.80;60.30;;;;;;5053478;28;19933;-74
2022/03/04 12:50:27;;;;;;;;;;;6.80;60.20;;;;;;5055478;28;20351;-76
2022/03/04 12:52:54;;;;;;;;;;;6.90;60.10;;;;;;5057164;28;19929;-76
2022/03/04 12:55:20;;;;;;;;;;;6.90;60.10;;;;;;5055446;28;19932;-75
2022/03/04 12:57:50;;;;;;;;;;;7.00;60.00;;;;;;5063144;28;19928;-75
2022/03/04 13:00:16;;;;;;;;;;;7.00;59.70;;;;;;5070823;28;19927;-76
2022/03/04 13:02:45;;;;;;;;;;;7.10;59.70;;;;;;5067896;28;20583;-76
2022/03/04 13:05:11;;;;;;;;;;;7.20;59.70;;;;;;5058044;28;20027;-76
2022/03/04 13:07:38;;;;;;;;;;;7.20;59.30;;;;;;5056380;28;19936;-76
2022/03/04 13:10:06;;;;;;;;;;;7.20;59.10;;;;;;5051936;28;20050;-76
2022/03/04 13:12:32;;;;;;;;;;;7.20;58.90;;;;;;5051882;28;19935;-76
2022/03/04 13:15:07;;;;;;;;;;;7.30;58.60;;;;;;5054709;28;20067;-76
2022/03/04 13:17:34;;;;;;;;;;;7.30;58.50;;;;;;5053147;28;19963;-76
2022/03/04 13:20:05;;;;;;;;;;;7.40;58.30;;;;;;5052151;28;19924;-76
2022/03/04 13:22:32;;;;;;;;;;;7.40;58.20;;;;;;5055364;28;19928;-76
2022/03/04 13:24:59;;;;;;;;;;;7.50;58.20;;;;;;5053527;28;19928;-76
2022/03/04 13:27:35;;;;;;;;;;;7.50;57.90;;;;;;5055659;28;20285;-76
2022/03/04 13:30:02;;;;;;;;;;;7.50;58.10;;;;;;5059009;28;19939;-75
2022/03/04 13:32:29;;;;;;;;;;;7.60;57.80;;;;;;5052191;28;20677;-76
2022/03/04 13:34:59;;;;;;;;;;;7.60;57.70;;;;;;5055476;28;19928;-76
2022/03/04 13:37:27;;;;;;;;;;;7.60;57.40;;;;;;5054297;28;20271;-76
2022/03/04 13:39:58;;;;;;;;;;;7.70;57.30;;;;;;5052504;28;19928;-76
2022/03/04 13:42:25;;;;;;;;;;;7.70;57.30;;;;;;5060170;28;19928;-76
2022/03/04 13:44:54;;;;;;;;;;;7.80;57.00;;;;;;5053921;28;19939;-76
2022/03/04 13:47:30;;;;;;;;;;;7.80;56.70;;;;;;5055492;28;19928;-77
2022/03/04 13:49:57;;;;;;;;;;;7.80;56.80;;;;;;5062801;28;19929;-74
2022/03/04 13:52:24;;;;;;;;;;;7.90;56.80;;;;;;5062566;28;19936;-76
2022/03/04 13:54:57;;;;;;;;;;;7.90;57.00;;;;;;5065732;28;19928;-75
2022/03/04 13:57:25;;;;;;;;;;;7.90;57.00;;;;;;5060543;28;20360;-75
2022/03/04 13:59:51;;;;;;;;;;;8.00;56.40;;;;;;5053112;28;19933;-76
2022/03/04 14:02:18;;;;;;;;;;;8.00;56.10;;;;;;5063431;28;19927;-75
2022/03/04 14:04:51;;;;;;;;;;;8.00;56.00;;;;;;5059534;28;19936;-70
2022/03/04 14:07:19;;;;;;;;;;;8.10;55.70;;;;;;5062953;28;19928;-71
2022/03/04 14:09:48;;;;;;;;;;;8.10;55.60;;;;;;5060257;28;19970;-70
2022/03/04 14:12:16;;;;;;;;;;;8.20;55.70;;;;;;5050306;28;20669;-70
2022/03/04 14:14:42;;;;;;;;;;;8.20;55.50;;;;;;5055884;28;19932;-70
2022/03/04 14:17:09;;;;;;;;;;;8.20;55.50;;;;;;5051930;28;20396;-70
2022/03/04 14:19:36;;;;;;;;;;;8.30;55.40;;;;;;5062041;28;19935;-71
2022/03/04 14:22:04;;;;;;;;;;;8.30;55.30;;;;;;5059210;28;19974;-70
2022/03/04 14:24:30;;;;;;;;;;;8.30;55.40;;;;;;5053489;28;19936;-70
2022/03/04 14:26:57;;;;;;;;;;;8.40;55.10;;;;;;5055950;28;19932;-70
2022/03/04 14:29:25;;;;;;;;;;;8.40;54.70;;;;;;5060976;28;19936;-71
2022/03/04 14:31:52;;;;;;;;;;;8.50;55.00;;;;;;5058982;28;20020;-70
2022/03/04 14:34:19;;;;;;;;;;;8.50;54.70;;;;;;5063813;28;19935;-70